sensor_id;sensor_type;location;lat;lon;timestamp;P1;durP1;ratioP1;P2;durP2;ratioP2
24813;SDS011;12904;50.088;11.414;2023-02-08T00:00:46;27.85;;;15.32;;
24813;SDS011;12904;50.088;11.414;2023-02-08T00:03:12;29.27;;;14.68;;
24813;SDS011;12904;50.088;11.414;2023-02-08T00:05:37;22.52;;;14.65;;
24813;SDS011;12904;50.088;11.414;2023-02-08T00:08:03;26.25;;;14.45;;
24813;SDS011;12904;50.088;11.414;2023-02-08T00:10:29;23.38;;;13.55;;
24813;SDS011;12904;50.088;11.414;2023-02-08T00:12:55;24.27;;;13.68;;
24813;SDS011;12904;50.088;11.414;2023-02-08T00:15:21;24.20;;;12.93;;
24813;SDS011;12904;50.088;11.414;2023-02-08T00:17:46;24.85;;;14.30;;
24813;SDS011;12904;50.088;11.414;2023-02-08T00:20:12;22.05;;;13.10;;
24813;SDS011;12904;50.088;11.414;2023-02-08T00:22:39;30.27;;;13.98;;
24813;SDS011;12904;50.088;11.414;2023-02-08T00:25:05;19.17;;;12.20;;
24813;SDS011;12904;50.088;11.414;2023-02-08T00:27:31;23.45;;;11.95;;
24813;SDS011;12904;50.088;11.414;2023-02-08T00:29:56;18.88;;;12.15;;
24813;SDS011;12904;50.088;11.414;2023-02-08T00:32:22;18.27;;;12.60;;
24813;SDS011;12904;50.088;11.414;2023-02-08T00:34:48;27.95;;;12.73;;
24813;SDS011;12904;50.088;11.414;2023-02-08T00:37:13;23.98;;;14.07;;
24813;SDS011;12904;50.088;11.414;2023-02-08T00:39:39;19.30;;;11.73;;
24813;SDS011;12904;50.088;11.414;2023-02-08T00:42:05;20.10;;;12.18;;
24813;SDS011;12904;50.088;11.414;2023-02-08T00:44:31;20.20;;;12.65;;
24813;SDS011;12904;50.088;11.414;2023-02-08T00:46:56;18.45;;;11.88;;
24813;SDS011;12904;50.088;11.414;2023-02-08T00:49:22;21.48;;;13.30;;
24813;SDS011;12904;50.088;11.414;2023-02-08T00:51:47;17.02;;;11.90;;
24813;SDS011;12904;50.088;11.414;2023-02-08T00:54:14;18.10;;;11.85;;
24813;SDS011;12904;50.088;11.414;2023-02-08T00:56:40;21.13;;;12.23;;
24813;SDS011;12904;50.088;11.414;2023-02-08T00:59:06;17.92;;;11.60;;
24813;SDS011;12904;50.088;11.414;2023-02-08T01:01:32;25.25;;;12.13;;
24813;SDS011;12904;50.088;11.414;2023-02-08T01:03:58;19.10;;;11.23;;
24813;SDS011;12904;50.088;11.414;2023-02-08T01:06:24;23.55;;;13.20;;
24813;SDS011;12904;50.088;11.414;2023-02-08T01:08:49;26.08;;;13.77;;
24813;SDS011;12904;50.088;11.414;2023-02-08T01:11:16;16.83;;;11.38;;
24813;SDS011;12904;50.088;11.414;2023-02-08T01:16:16;28.77;;;13.82;;
24813;SDS011;12904;50.088;11.414;2023-02-08T01:18:47;26.13;;;12.73;;
24813;SDS011;12904;50.088;11.414;2023-02-08T01:21:16;19.05;;;12.20;;
24813;SDS011;12904;50.088;11.414;2023-02-08T01:23:43;23.25;;;13.40;;
24813;SDS011;12904;50.088;11.414;2023-02-08T01:26:10;21.77;;;12.73;;
24813;SDS011;12904;50.088;11.414;2023-02-08T01:28:37;23.55;;;11.85;;
24813;SDS011;12904;50.088;11.414;2023-02-08T01:31:05;23.38;;;12.05;;
24813;SDS011;12904;50.088;11.414;2023-02-08T01:33:32;21.98;;;12.68;;
24813;SDS011;12904;50.088;11.414;2023-02-08T01:35:58;22.38;;;12.05;;
24813;SDS011;12904;50.088;11.414;2023-02-08T01:38:23;22.75;;;12.60;;
24813;SDS011;12904;50.088;11.414;2023-02-08T01:40:49;21.88;;;12.57;;
24813;SDS011;12904;50.088;11.414;2023-02-08T01:43:19;23.70;;;13.57;;
24813;SDS011;12904;50.088;11.414;2023-02-08T01:45:48;24.95;;;13.57;;
24813;SDS011;12904;50.088;11.414;2023-02-08T01:48:24;20.55;;;13.55;;
24813;SDS011;12904;50.088;11.414;2023-02-08T01:53:20;23.63;;;13.50;;
24813;SDS011;12904;50.088;11.414;2023-02-08T01:55:48;25.10;;;13.95;;
24813;SDS011;12904;50.088;11.414;2023-02-08T01:58:16;22.63;;;13.40;;
24813;SDS011;12904;50.088;11.414;2023-02-08T02:00:43;25.13;;;13.82;;
24813;SDS011;12904;50.088;11.414;2023-02-08T02:03:09;23.40;;;14.73;;
24813;SDS011;12904;50.088;11.414;2023-02-08T02:05:39;29.73;;;13.38;;
24813;SDS011;12904;50.088;11.414;2023-02-08T02:08:07;26.90;;;13.43;;
24813;SDS011;12904;50.088;11.414;2023-02-08T02:10:34;22.85;;;12.52;;
24813;SDS011;12904;50.088;11.414;2023-02-08T02:13:03;26.63;;;14.05;;
24813;SDS011;12904;50.088;11.414;2023-02-08T02:15:35;21.83;;;13.43;;
24813;SDS011;12904;50.088;11.414;2023-02-08T02:18:01;21.85;;;13.23;;
24813;SDS011;12904;50.088;11.414;2023-02-08T02:31:27;23.67;;;13.88;;
24813;SDS011;12904;50.088;11.414;2023-02-08T02:36:51;22.52;;;13.10;;
24813;SDS011;12904;50.088;11.414;2023-02-08T02:45:32;31.17;;;14.63;;
24813;SDS011;12904;50.088;11.414;2023-02-08T02:48:05;24.75;;;12.95;;
24813;SDS011;12904;50.088;11.414;2023-02-08T02:50:39;29.98;;;15.23;;
24813;SDS011;12904;50.088;11.414;2023-02-08T02:53:18;29.65;;;14.10;;
24813;SDS011;12904;50.088;11.414;2023-02-08T02:55:52;29.02;;;14.60;;
24813;SDS011;12904;50.088;11.414;2023-02-08T02:58:22;32.78;;;15.45;;
24813;SDS011;12904;50.088;11.414;2023-02-08T03:00:53;26.05;;;14.32;;
24813;SDS011;12904;50.088;11.414;2023-02-08T03:03:25;27.60;;;14.13;;
24813;SDS011;12904;50.088;11.414;2023-02-08T03:05:55;26.40;;;14.32;;
24813;SDS011;12904;50.088;11.414;2023-02-08T03:11:24;29.95;;;14.48;;
24813;SDS011;12904;50.088;11.414;2023-02-08T03:19:26;22.17;;;13.23;;
24813;SDS011;12904;50.088;11.414;2023-02-08T03:22:01;27.63;;;14.40;;
24813;SDS011;12904;50.088;11.414;2023-02-08T03:24:42;25.85;;;12.75;;
24813;SDS011;12904;50.088;11.414;2023-02-08T03:27:30;25.65;;;13.75;;
24813;SDS011;12904;50.088;11.414;2023-02-08T03:30:20;20.52;;;11.98;;
24813;SDS011;12904;50.088;11.414;2023-02-08T03:32:56;25.23;;;14.00;;
24813;SDS011;12904;50.088;11.414;2023-02-08T03:35:37;26.33;;;13.70;;
24813;SDS011;12904;50.088;11.414;2023-02-08T03:38:15;22.95;;;13.07;;
24813;SDS011;12904;50.088;11.414;2023-02-08T03:40:47;26.17;;;13.55;;
24813;SDS011;12904;50.088;11.414;2023-02-08T03:43:17;22.20;;;13.40;;
24813;SDS011;12904;50.088;11.414;2023-02-08T03:45:51;24.70;;;13.82;;
24813;SDS011;12904;50.088;11.414;2023-02-08T03:48:25;22.02;;;13.15;;
24813;SDS011;12904;50.088;11.414;2023-02-08T03:50:52;26.63;;;13.60;;
24813;SDS011;12904;50.088;11.414;2023-02-08T03:53:21;29.20;;;13.15;;
24813;SDS011;12904;50.088;11.414;2023-02-08T03:55:48;26.83;;;13.70;;
24813;SDS011;12904;50.088;11.414;2023-02-08T03:58:33;20.38;;;12.15;;
24813;SDS011;12904;50.088;11.414;2023-02-08T04:01:08;24.02;;;12.73;;
24813;SDS011;12904;50.088;11.414;2023-02-08T04:03:57;23.45;;;12.70;;
24813;SDS011;12904;50.088;11.414;2023-02-08T04:06:24;22.15;;;12.60;;
24813;SDS011;12904;50.088;11.414;2023-02-08T04:08:50;21.83;;;12.25;;
24813;SDS011;12904;50.088;11.414;2023-02-08T04:11:16;24.23;;;12.30;;
24813;SDS011;12904;50.088;11.414;2023-02-08T04:13:42;22.88;;;12.88;;
24813;SDS011;12904;50.088;11.414;2023-02-08T04:16:10;25.63;;;13.10;;
24813;SDS011;12904;50.088;11.414;2023-02-08T04:18:36;28.98;;;14.43;;
24813;SDS011;12904;50.088;11.414;2023-02-08T04:21:02;46.38;;;15.32;;
24813;SDS011;12904;50.088;11.414;2023-02-08T04:23:28;31.33;;;14.18;;
24813;SDS011;12904;50.088;11.414;2023-02-08T04:25:54;23.77;;;12.90;;
24813;SDS011;12904;50.088;11.414;2023-02-08T04:28:19;22.95;;;12.00;;
24813;SDS011;12904;50.088;11.414;2023-02-08T04:30:45;23.58;;;13.35;;
24813;SDS011;12904;50.088;11.414;2023-02-08T04:33:11;24.80;;;12.48;;
24813;SDS011;12904;50.088;11.414;2023-02-08T04:35:38;18.55;;;13.32;;
24813;SDS011;12904;50.088;11.414;2023-02-08T04:38:07;28.33;;;15.02;;
24813;SDS011;12904;50.088;11.414;2023-02-08T04:40:33;28.27;;;13.80;;
24813;SDS011;12904;50.088;11.414;2023-02-08T04:42:58;20.88;;;13.07;;
24813;SDS011;12904;50.088;11.414;2023-02-08T04:45:24;23.52;;;12.68;;
24813;SDS011;12904;50.088;11.414;2023-02-08T04:47:51;26.52;;;13.65;;
24813;SDS011;12904;50.088;11.414;2023-02-08T04:50:16;23.13;;;13.40;;
24813;SDS011;12904;50.088;11.414;2023-02-08T04:52:42;28.08;;;13.98;;
24813;SDS011;12904;50.088;11.414;2023-02-08T04:55:08;26.15;;;13.73;;
24813;SDS011;12904;50.088;11.414;2023-02-08T04:57:33;27.35;;;13.75;;
24813;SDS011;12904;50.088;11.414;2023-02-08T04:59:59;23.92;;;14.07;;
24813;SDS011;12904;50.088;11.414;2023-02-08T05:02:25;30.63;;;16.95;;
24813;SDS011;12904;50.088;11.414;2023-02-08T05:04:50;33.22;;;15.55;;
24813;SDS011;12904;50.088;11.414;2023-02-08T05:07:16;32.85;;;15.80;;
24813;SDS011;12904;50.088;11.414;2023-02-08T05:09:41;33.92;;;15.98;;
24813;SDS011;12904;50.088;11.414;2023-02-08T05:12:07;25.23;;;15.93;;
24813;SDS011;12904;50.088;11.414;2023-02-08T05:14:32;35.13;;;17.95;;
24813;SDS011;12904;50.088;11.414;2023-02-08T05:16:58;33.55;;;18.30;;
24813;SDS011;12904;50.088;11.414;2023-02-08T05:19:24;28.50;;;16.10;;
24813;SDS011;12904;50.088;11.414;2023-02-08T05:21:50;30.83;;;16.77;;
24813;SDS011;12904;50.088;11.414;2023-02-08T05:24:16;29.90;;;16.55;;
24813;SDS011;12904;50.088;11.414;2023-02-08T05:26:41;32.67;;;16.23;;
24813;SDS011;12904;50.088;11.414;2023-02-08T05:29:08;35.38;;;16.13;;
24813;SDS011;12904;50.088;11.414;2023-02-08T05:31:34;29.42;;;15.00;;
24813;SDS011;12904;50.088;11.414;2023-02-08T05:34:00;26.90;;;14.20;;
24813;SDS011;12904;50.088;11.414;2023-02-08T05:36:26;25.08;;;15.98;;
24813;SDS011;12904;50.088;11.414;2023-02-08T05:38:51;40.92;;;18.48;;
24813;SDS011;12904;50.088;11.414;2023-02-08T05:41:17;40.53;;;17.92;;
24813;SDS011;12904;50.088;11.414;2023-02-08T05:43:43;27.15;;;15.68;;
24813;SDS011;12904;50.088;11.414;2023-02-08T05:46:09;26.35;;;15.32;;
24813;SDS011;12904;50.088;11.414;2023-02-08T05:48:35;31.25;;;14.88;;
24813;SDS011;12904;50.088;11.414;2023-02-08T05:51:01;26.05;;;14.13;;
24813;SDS011;12904;50.088;11.414;2023-02-08T05:53:28;27.00;;;13.65;;
24813;SDS011;12904;50.088;11.414;2023-02-08T05:55:55;26.23;;;13.35;;
24813;SDS011;12904;50.088;11.414;2023-02-08T05:58:22;27.70;;;13.82;;
24813;SDS011;12904;50.088;11.414;2023-02-08T06:00:48;26.02;;;13.90;;
24813;SDS011;12904;50.088;11.414;2023-02-08T06:03:13;27.48;;;13.85;;
24813;SDS011;12904;50.088;11.414;2023-02-08T06:05:39;21.00;;;12.30;;
24813;SDS011;12904;50.088;11.414;2023-02-08T06:08:05;32.75;;;14.82;;
24813;SDS011;12904;50.088;11.414;2023-02-08T06:10:32;29.00;;;14.52;;
24813;SDS011;12904;50.088;11.414;2023-02-08T06:12:57;28.52;;;15.02;;
24813;SDS011;12904;50.088;11.414;2023-02-08T06:15:23;24.42;;;13.45;;
24813;SDS011;12904;50.088;11.414;2023-02-08T06:17:49;30.17;;;15.05;;
24813;SDS011;12904;50.088;11.414;2023-02-08T06:20:15;33.38;;;14.43;;
24813;SDS011;12904;50.088;11.414;2023-02-08T06:22:40;30.58;;;13.68;;
24813;SDS011;12904;50.088;11.414;2023-02-08T06:25:06;29.67;;;14.52;;
24813;SDS011;12904;50.088;11.414;2023-02-08T06:27:32;24.17;;;13.73;;
24813;SDS011;12904;50.088;11.414;2023-02-08T06:29:57;27.10;;;13.48;;
24813;SDS011;12904;50.088;11.414;2023-02-08T06:32:23;27.92;;;14.68;;
24813;SDS011;12904;50.088;11.414;2023-02-08T06:34:50;33.47;;;15.73;;
24813;SDS011;12904;50.088;11.414;2023-02-08T06:37:16;26.67;;;14.77;;
24813;SDS011;12904;50.088;11.414;2023-02-08T06:39:42;24.33;;;13.60;;
24813;SDS011;12904;50.088;11.414;2023-02-08T06:42:08;31.55;;;14.25;;
24813;SDS011;12904;50.088;11.414;2023-02-08T06:44:34;24.30;;;13.18;;
24813;SDS011;12904;50.088;11.414;2023-02-08T06:46:59;30.17;;;14.98;;
24813;SDS011;12904;50.088;11.414;2023-02-08T06:49:25;29.80;;;14.48;;
24813;SDS011;12904;50.088;11.414;2023-02-08T06:51:51;19.95;;;12.98;;
24813;SDS011;12904;50.088;11.414;2023-02-08T06:54:16;23.50;;;13.43;;
24813;SDS011;12904;50.088;11.414;2023-02-08T06:56:42;20.38;;;12.70;;
24813;SDS011;12904;50.088;11.414;2023-02-08T06:59:08;20.88;;;13.48;;
24813;SDS011;12904;50.088;11.414;2023-02-08T07:01:33;27.05;;;14.15;;
24813;SDS011;12904;50.088;11.414;2023-02-08T07:03:59;29.35;;;14.82;;
24813;SDS011;12904;50.088;11.414;2023-02-08T07:06:25;25.77;;;14.70;;
24813;SDS011;12904;50.088;11.414;2023-02-08T07:08:50;30.25;;;13.98;;
24813;SDS011;12904;50.088;11.414;2023-02-08T07:11:17;25.88;;;13.73;;
24813;SDS011;12904;50.088;11.414;2023-02-08T07:13:50;23.83;;;13.52;;
24813;SDS011;12904;50.088;11.414;2023-02-08T07:16:17;21.83;;;13.32;;
24813;SDS011;12904;50.088;11.414;2023-02-08T07:18:43;29.63;;;16.05;;
24813;SDS011;12904;50.088;11.414;2023-02-08T07:21:09;28.45;;;14.70;;
24813;SDS011;12904;50.088;11.414;2023-02-08T07:23:36;27.30;;;14.40;;
24813;SDS011;12904;50.088;11.414;2023-02-08T07:26:04;23.30;;;13.27;;
24813;SDS011;12904;50.088;11.414;2023-02-08T07:28:35;28.50;;;13.80;;
24813;SDS011;12904;50.088;11.414;2023-02-08T07:31:04;27.98;;;15.05;;
24813;SDS011;12904;50.088;11.414;2023-02-08T07:33:31;27.02;;;14.27;;
24813;SDS011;12904;50.088;11.414;2023-02-08T07:35:56;25.95;;;15.45;;
24813;SDS011;12904;50.088;11.414;2023-02-08T07:38:22;28.42;;;14.75;;
24813;SDS011;12904;50.088;11.414;2023-02-08T07:40:47;22.88;;;15.77;;
24813;SDS011;12904;50.088;11.414;2023-02-08T07:43:13;25.55;;;15.07;;
24813;SDS011;12904;50.088;11.414;2023-02-08T07:45:39;30.20;;;15.63;;
24813;SDS011;12904;50.088;11.414;2023-02-08T07:48:05;25.52;;;14.90;;
24813;SDS011;12904;50.088;11.414;2023-02-08T07:50:30;26.33;;;14.90;;
24813;SDS011;12904;50.088;11.414;2023-02-08T07:52:56;29.98;;;15.35;;
24813;SDS011;12904;50.088;11.414;2023-02-08T07:55:22;28.02;;;14.50;;
24813;SDS011;12904;50.088;11.414;2023-02-08T07:57:48;25.70;;;15.20;;
24813;SDS011;12904;50.088;11.414;2023-02-08T08:00:16;28.98;;;15.02;;
24813;SDS011;12904;50.088;11.414;2023-02-08T08:02:42;25.48;;;14.23;;
24813;SDS011;12904;50.088;11.414;2023-02-08T08:05:08;25.20;;;14.10;;
24813;SDS011;12904;50.088;11.414;2023-02-08T08:07:34;23.17;;;14.63;;
24813;SDS011;12904;50.088;11.414;2023-02-08T08:10:00;26.42;;;15.15;;
24813;SDS011;12904;50.088;11.414;2023-02-08T08:12:26;22.00;;;14.32;;
24813;SDS011;12904;50.088;11.414;2023-02-08T08:14:51;30.75;;;15.98;;
24813;SDS011;12904;50.088;11.414;2023-02-08T08:17:17;33.13;;;16.38;;
24813;SDS011;12904;50.088;11.414;2023-02-08T08:19:43;25.48;;;15.30;;
24813;SDS011;12904;50.088;11.414;2023-02-08T08:22:09;23.35;;;15.23;;
24813;SDS011;12904;50.088;11.414;2023-02-08T08:24:35;27.92;;;14.55;;
24813;SDS011;12904;50.088;11.414;2023-02-08T08:27:01;31.60;;;15.10;;
24813;SDS011;12904;50.088;11.414;2023-02-08T08:29:27;29.67;;;16.88;;
24813;SDS011;12904;50.088;11.414;2023-02-08T08:31:55;33.60;;;17.23;;
24813;SDS011;12904;50.088;11.414;2023-02-08T08:34:21;32.83;;;16.90;;
24813;SDS011;12904;50.088;11.414;2023-02-08T08:36:53;26.70;;;16.50;;
24813;SDS011;12904;50.088;11.414;2023-02-08T08:39:22;38.83;;;17.27;;
24813;SDS011;12904;50.088;11.414;2023-02-08T08:41:48;35.08;;;16.77;;
24813;SDS011;12904;50.088;11.414;2023-02-08T08:44:14;37.05;;;17.20;;
24813;SDS011;12904;50.088;11.414;2023-02-08T08:46:39;28.15;;;16.45;;
24813;SDS011;12904;50.088;11.414;2023-02-08T08:49:05;38.17;;;16.42;;
24813;SDS011;12904;50.088;11.414;2023-02-08T08:51:31;31.38;;;16.75;;
24813;SDS011;12904;50.088;11.414;2023-02-08T08:54:02;35.13;;;18.25;;
24813;SDS011;12904;50.088;11.414;2023-02-08T08:56:29;35.88;;;18.00;;
24813;SDS011;12904;50.088;11.414;2023-02-08T08:58:55;29.63;;;16.80;;
24813;SDS011;12904;50.088;11.414;2023-02-08T09:01:21;34.88;;;17.52;;
24813;SDS011;12904;50.088;11.414;2023-02-08T09:03:46;35.75;;;18.73;;
24813;SDS011;12904;50.088;11.414;2023-02-08T09:06:12;37.40;;;17.92;;
24813;SDS011;12904;50.088;11.414;2023-02-08T09:08:37;31.27;;;16.65;;
24813;SDS011;12904;50.088;11.414;2023-02-08T09:11:07;28.83;;;15.73;;
24813;SDS011;12904;50.088;11.414;2023-02-08T09:13:35;33.75;;;16.60;;
24813;SDS011;12904;50.088;11.414;2023-02-08T09:16:08;28.45;;;16.70;;
24813;SDS011;12904;50.088;11.414;2023-02-08T09:18:38;30.33;;;17.00;;
24813;SDS011;12904;50.088;11.414;2023-02-08T09:21:08;29.52;;;17.00;;
24813;SDS011;12904;50.088;11.414;2023-02-08T09:23:52;27.88;;;17.15;;
24813;SDS011;12904;50.088;11.414;2023-02-08T09:26:19;26.27;;;15.45;;
24813;SDS011;12904;50.088;11.414;2023-02-08T09:28:45;23.98;;;14.48;;
24813;SDS011;12904;50.088;11.414;2023-02-08T09:33:47;18.73;;;13.52;;
24813;SDS011;12904;50.088;11.414;2023-02-08T09:36:17;20.00;;;14.27;;
24813;SDS011;12904;50.088;11.414;2023-02-08T09:38:43;22.45;;;14.18;;
24813;SDS011;12904;50.088;11.414;2023-02-08T09:44:12;16.77;;;14.88;;
24813;SDS011;12904;50.088;11.414;2023-02-08T09:46:51;15.23;;;13.60;;
24813;SDS011;12904;50.088;11.414;2023-02-08T09:49:32;18.80;;;15.20;;
24813;SDS011;12904;50.088;11.414;2023-02-08T09:52:08;15.63;;;14.02;;
24813;SDS011;12904;50.088;11.414;2023-02-08T09:54:50;15.70;;;13.80;;
24813;SDS011;12904;50.088;11.414;2023-02-08T09:57:21;17.08;;;14.30;;
24813;SDS011;12904;50.088;11.414;2023-02-08T09:59:54;15.02;;;13.50;;
24813;SDS011;12904;50.088;11.414;2023-02-08T10:02:25;16.02;;;13.48;;
24813;SDS011;12904;50.088;11.414;2023-02-08T10:07:27;18.60;;;14.63;;
24813;SDS011;12904;50.088;11.414;2023-02-08T10:09:55;16.17;;;14.57;;
24813;SDS011;12904;50.088;11.414;2023-02-08T10:12:34;17.10;;;15.40;;
24813;SDS011;12904;50.088;11.414;2023-02-08T10:29:23;15.95;;;13.95;;
24813;SDS011;12904;50.088;11.414;2023-02-08T10:39:40;15.95;;;14.35;;
24813;SDS011;12904;50.088;11.414;2023-02-08T10:42:10;16.27;;;14.57;;
24813;SDS011;12904;50.088;11.414;2023-02-08T10:50:42;15.13;;;13.52;;
24813;SDS011;12904;50.088;11.414;2023-02-08T10:53:15;16.70;;;13.82;;
24813;SDS011;12904;50.088;11.414;2023-02-08T10:55:42;23.50;;;14.65;;
24813;SDS011;12904;50.088;11.414;2023-02-08T10:58:19;16.42;;;13.35;;
24813;SDS011;12904;50.088;11.414;2023-02-08T11:00:48;20.83;;;14.30;;
24813;SDS011;12904;50.088;11.414;2023-02-08T11:03:23;16.55;;;14.02;;
24813;SDS011;12904;50.088;11.414;2023-02-08T11:05:50;15.35;;;12.82;;
24813;SDS011;12904;50.088;11.414;2023-02-08T11:08:18;26.50;;;13.23;;
24813;SDS011;12904;50.088;11.414;2023-02-08T11:11:02;18.70;;;13.10;;
24813;SDS011;12904;50.088;11.414;2023-02-08T11:13:46;16.70;;;14.02;;
24813;SDS011;12904;50.088;11.414;2023-02-08T11:16:22;23.55;;;14.10;;
24813;SDS011;12904;50.088;11.414;2023-02-08T11:21:21;15.18;;;13.23;;
24813;SDS011;12904;50.088;11.414;2023-02-08T11:26:40;20.48;;;13.50;;
24813;SDS011;12904;50.088;11.414;2023-02-08T11:29:13;16.77;;;12.85;;
24813;SDS011;12904;50.088;11.414;2023-02-08T11:34:39;22.27;;;13.80;;
24813;SDS011;12904;50.088;11.414;2023-02-08T11:37:19;17.45;;;12.73;;
24813;SDS011;12904;50.088;11.414;2023-02-08T11:39:50;22.98;;;14.55;;
24813;SDS011;12904;50.088;11.414;2023-02-08T11:42:25;24.83;;;13.35;;
24813;SDS011;12904;50.088;11.414;2023-02-08T11:44:54;18.85;;;13.93;;
24813;SDS011;12904;50.088;11.414;2023-02-08T11:47:26;21.02;;;13.57;;
24813;SDS011;12904;50.088;11.414;2023-02-08T11:49:55;21.15;;;13.15;;
24813;SDS011;12904;50.088;11.414;2023-02-08T11:54:54;15.48;;;12.23;;
24813;SDS011;12904;50.088;11.414;2023-02-08T11:57:54;18.23;;;13.32;;
24813;SDS011;12904;50.088;11.414;2023-02-08T12:00:22;16.67;;;9.83;;
24813;SDS011;12904;50.088;11.414;2023-02-08T12:02:50;19.88;;;13.05;;
24813;SDS011;12904;50.088;11.414;2023-02-08T12:05:26;19.90;;;13.77;;
24813;SDS011;12904;50.088;11.414;2023-02-08T12:08:16;15.73;;;12.25;;
24813;SDS011;12904;50.088;11.414;2023-02-08T12:14:09;23.63;;;13.43;;
24813;SDS011;12904;50.088;11.414;2023-02-08T12:19:42;16.73;;;11.82;;
24813;SDS011;12904;50.088;11.414;2023-02-08T12:22:22;18.63;;;11.25;;
24813;SDS011;12904;50.088;11.414;2023-02-08T12:32:49;14.30;;;11.70;;
24813;SDS011;12904;50.088;11.414;2023-02-08T12:41:18;12.75;;;10.85;;
24813;SDS011;12904;50.088;11.414;2023-02-08T12:54:41;13.80;;;10.35;;
24813;SDS011;12904;50.088;11.414;2023-02-08T12:57:12;19.52;;;11.02;;
24813;SDS011;12904;50.088;11.414;2023-02-08T13:02:12;13.65;;;9.82;;
24813;SDS011;12904;50.088;11.414;2023-02-08T13:04:48;14.57;;;11.05;;
24813;SDS011;12904;50.088;11.414;2023-02-08T13:07:25;10.90;;;8.85;;
24813;SDS011;12904;50.088;11.414;2023-02-08T13:12:37;13.30;;;7.93;;
24813;SDS011;12904;50.088;11.414;2023-02-08T13:15:11;9.88;;;7.95;;
24813;SDS011;12904;50.088;11.414;2023-02-08T13:18:01;10.98;;;8.40;;
24813;SDS011;12904;50.088;11.414;2023-02-08T13:20:43;12.77;;;8.77;;
24813;SDS011;12904;50.088;11.414;2023-02-08T13:23:15;13.55;;;10.07;;
24813;SDS011;12904;50.088;11.414;2023-02-08T13:25:47;12.93;;;8.93;;
24813;SDS011;12904;50.088;11.414;2023-02-08T13:28:20;14.90;;;8.93;;
24813;SDS011;12904;50.088;11.414;2023-02-08T13:30:51;13.50;;;9.48;;
24813;SDS011;12904;50.088;11.414;2023-02-08T13:33:31;9.88;;;8.43;;
24813;SDS011;12904;50.088;11.414;2023-02-08T13:36:26;10.20;;;8.23;;
24813;SDS011;12904;50.088;11.414;2023-02-08T13:39:01;12.52;;;8.82;;
24813;SDS011;12904;50.088;11.414;2023-02-08T13:41:29;12.88;;;8.57;;
24813;SDS011;12904;50.088;11.414;2023-02-08T13:44:00;9.98;;;7.80;;
24813;SDS011;12904;50.088;11.414;2023-02-08T13:46:34;12.45;;;7.90;;
24813;SDS011;12904;50.088;11.414;2023-02-08T13:49:03;9.00;;;7.03;;
24813;SDS011;12904;50.088;11.414;2023-02-08T14:04:36;14.40;;;8.48;;
24813;SDS011;12904;50.088;11.414;2023-02-08T14:07:10;11.15;;;8.05;;
24813;SDS011;12904;50.088;11.414;2023-02-08T14:15:24;10.17;;;8.73;;
24813;SDS011;12904;50.088;11.414;2023-02-08T14:17:52;13.93;;;9.88;;
24813;SDS011;12904;50.088;11.414;2023-02-08T14:22:52;11.13;;;8.45;;
24813;SDS011;12904;50.088;11.414;2023-02-08T14:25:28;11.10;;;8.40;;
24813;SDS011;12904;50.088;11.414;2023-02-08T14:28:05;10.77;;;7.80;;
24813;SDS011;12904;50.088;11.414;2023-02-08T14:30:44;16.67;;;9.18;;
24813;SDS011;12904;50.088;11.414;2023-02-08T14:33:20;10.38;;;8.65;;
24813;SDS011;12904;50.088;11.414;2023-02-08T14:35:56;11.90;;;8.40;;
24813;SDS011;12904;50.088;11.414;2023-02-08T14:45:43;11.40;;;8.68;;
24813;SDS011;12904;50.088;11.414;2023-02-08T14:55:55;9.25;;;7.45;;
24813;SDS011;12904;50.088;11.414;2023-02-08T14:58:30;9.77;;;7.22;;
24813;SDS011;12904;50.088;11.414;2023-02-08T15:01:00;9.05;;;7.00;;
24813;SDS011;12904;50.088;11.414;2023-02-08T15:03:30;12.27;;;8.85;;
24813;SDS011;12904;50.088;11.414;2023-02-08T15:08:47;10.73;;;7.88;;
24813;SDS011;12904;50.088;11.414;2023-02-08T15:11:24;8.98;;;7.20;;
24813;SDS011;12904;50.088;11.414;2023-02-08T15:13:54;7.25;;;5.65;;
24813;SDS011;12904;50.088;11.414;2023-02-08T15:16:23;7.65;;;5.47;;
24813;SDS011;12904;50.088;11.414;2023-02-08T15:18:57;6.68;;;5.25;;
24813;SDS011;12904;50.088;11.414;2023-02-08T15:21:26;7.75;;;5.43;;
24813;SDS011;12904;50.088;11.414;2023-02-08T15:26:23;8.77;;;5.18;;
24813;SDS011;12904;50.088;11.414;2023-02-08T15:28:50;8.82;;;5.82;;
24813;SDS011;12904;50.088;11.414;2023-02-08T15:31:17;7.82;;;5.78;;
24813;SDS011;12904;50.088;11.414;2023-02-08T15:33:45;13.80;;;7.75;;
24813;SDS011;12904;50.088;11.414;2023-02-08T15:38:54;10.05;;;7.53;;
24813;SDS011;12904;50.088;11.414;2023-02-08T15:41:24;10.00;;;8.02;;
24813;SDS011;12904;50.088;11.414;2023-02-08T15:43:49;16.13;;;9.02;;
24813;SDS011;12904;50.088;11.414;2023-02-08T15:46:24;12.32;;;9.55;;
24813;SDS011;12904;50.088;11.414;2023-02-08T15:48:51;12.02;;;9.57;;
24813;SDS011;12904;50.088;11.414;2023-02-08T15:51:17;13.75;;;10.18;;
24813;SDS011;12904;50.088;11.414;2023-02-08T15:53:47;13.75;;;10.40;;
24813;SDS011;12904;50.088;11.414;2023-02-08T15:56:19;12.38;;;9.88;;
24813;SDS011;12904;50.088;11.414;2023-02-08T15:58:58;16.58;;;11.13;;
24813;SDS011;12904;50.088;11.414;2023-02-08T16:01:26;15.25;;;11.35;;
24813;SDS011;12904;50.088;11.414;2023-02-08T16:03:55;15.15;;;10.73;;
24813;SDS011;12904;50.088;11.414;2023-02-08T16:06:24;20.30;;;11.65;;
24813;SDS011;12904;50.088;11.414;2023-02-08T16:08:53;15.07;;;10.00;;
24813;SDS011;12904;50.088;11.414;2023-02-08T16:11:23;14.05;;;10.40;;
24813;SDS011;12904;50.088;11.414;2023-02-08T16:13:55;18.55;;;11.48;;
24813;SDS011;12904;50.088;11.414;2023-02-08T16:16:24;17.98;;;11.05;;
24813;SDS011;12904;50.088;11.414;2023-02-08T16:19:00;22.30;;;11.30;;
24813;SDS011;12904;50.088;11.414;2023-02-08T16:21:34;16.05;;;11.82;;
24813;SDS011;12904;50.088;11.414;2023-02-08T16:26:40;17.15;;;11.48;;
24813;SDS011;12904;50.088;11.414;2023-02-08T16:29:24;21.90;;;11.98;;
24813;SDS011;12904;50.088;11.414;2023-02-08T16:32:05;17.57;;;10.37;;
24813;SDS011;12904;50.088;11.414;2023-02-08T16:34:49;16.70;;;10.48;;
24813;SDS011;12904;50.088;11.414;2023-02-08T16:37:30;16.42;;;10.05;;
24813;SDS011;12904;50.088;11.414;2023-02-08T16:40:02;33.45;;;18.05;;
24813;SDS011;12904;50.088;11.414;2023-02-08T16:42:32;36.97;;;17.63;;
24813;SDS011;12904;50.088;11.414;2023-02-08T16:50:04;35.10;;;16.48;;
24813;SDS011;12904;50.088;11.414;2023-02-08T16:52:31;17.75;;;12.05;;
24813;SDS011;12904;50.088;11.414;2023-02-08T16:54:57;23.60;;;11.57;;
24813;SDS011;12904;50.088;11.414;2023-02-08T16:57:24;15.90;;;10.48;;
24813;SDS011;12904;50.088;11.414;2023-02-08T17:00:02;22.10;;;10.57;;
24813;SDS011;12904;50.088;11.414;2023-02-08T17:02:36;15.82;;;9.75;;
24813;SDS011;12904;50.088;11.414;2023-02-08T17:05:02;16.77;;;10.23;;
24813;SDS011;12904;50.088;11.414;2023-02-08T17:07:27;15.27;;;10.13;;
24813;SDS011;12904;50.088;11.414;2023-02-08T17:09:56;21.05;;;11.13;;
24813;SDS011;12904;50.088;11.414;2023-02-08T17:12:22;20.25;;;10.77;;